Wetterdaten: Montag, 07.06.2010
Datum Zeit Temp. a Sch. Temp. a Son. Temp. a Bod. Feuchte a. Luftdruck Regen Wind Richtung Richtung Sonnenschein Helligkeit Taupunkt Windchill
07.06.2010 00:02 16,2 C 17,1 C 13,7 C 93 % 1011 hPa 1,8 l/m 3,2 m/s (2 Bft) W-SW22.5 240 0 min 0 lux 15,1 C 13,8 C
07.06.2010 00:08 16,1 C 17,0 C 14,1 C 93 % 1011 hPa 1,1 l/m 0,9 m/s (1 Bft) W-SW22.5 250 0 min 0 lux 15,0 C 16,1 C
07.06.2010 00:13 16,1 C 16,9 C 13,8 C 93 % 1011 hPa 0,4 l/m 2,0 m/s (2 Bft) NW45 305 0 min 0 lux 15,0 C 15,7 C
07.06.2010 00:17 16,1 C 16,9 C 14,0 C 94 % 1011 hPa 0,4 l/m 2,8 m/s (2 Bft) W22.5 260 0 min 0 lux 15,1 C 14,4 C
07.06.2010 00:22 16,0 C 16,8 C 14,0 C 95 % 1011 hPa 0,0 l/m 3,0 m/s (2 Bft) W22.5 280 0 min 0 lux 15,2 C 13,9 C
07.06.2010 00:27 16,0 C 16,8 C 14,1 C 95 % 1011 hPa 0,0 l/m 2,4 m/s (2 Bft) W22.5 270 0 min 0 lux 15,2 C 14,9 C
07.06.2010 00:32 16,0 C 16,7 C 14,1 C 95 % 1011 hPa 0,0 l/m 1,2 m/s (1 Bft) W-SW 255 0 min 0 lux 15,2 C 16,0 C
07.06.2010 00:37 16,0 C 16,7 C 14,0 C 95 % 1011 hPa 0,0 l/m 2,1 m/s (2 Bft) W-SW22.5 250 0 min 0 lux 15,2 C 15,4 C
07.06.2010 00:42 16,0 C 16,7 C 14,1 C 95 % 1011 hPa 0,0 l/m 2,1 m/s (2 Bft) W-SW 250 0 min 0 lux 15,2 C 15,4 C
07.06.2010 00:47 15,9 C 16,6 C 14,1 C 95 % 1011 hPa 0,0 l/m 1,0 m/s (1 Bft) W-SW 245 0 min 0 lux 15,1 C 15,9 C
07.06.2010 00:52 15,8 C 16,6 C 14,1 C 95 % 1011 hPa 0,0 l/m 1,7 m/s (2 Bft) W-SW22.5 240 0 min 0 lux 15,0 C 15,8 C
07.06.2010 00:58 15,8 C 16,6 C 13,9 C 96 % 1011 hPa 0,0 l/m 1,6 m/s (2 Bft) W-SW 240 0 min 0 lux 15,2 C 15,8 C
07.06.2010 01:03 15,8 C 16,6 C 14,0 C 96 % 1011 hPa 0,0 l/m 2,8 m/s (2 Bft) W22.5 260 0 min 0 lux 15,2 C 14,0 C
07.06.2010 01:07 15,9 C 16,6 C 14,0 C 96 % 1011 hPa 0,4 l/m 2,1 m/s (2 Bft) W22.5 265 0 min 0 lux 15,3 C 15,2 C
07.06.2010 01:12 15,9 C 16,6 C 13,9 C 96 % 1011 hPa 0,0 l/m 2,1 m/s (2 Bft) W-SW45 255 0 min 0 lux 15,3 C 15,3 C
07.06.2010 01:17 15,9 C 16,6 C 14,0 C 96 % 1011 hPa 0,0 l/m 2,1 m/s (2 Bft) W-SW45 255 0 min 0 lux 15,3 C 15,3 C
07.06.2010 01:22 15,8 C 16,6 C 13,9 C 96 % 1011 hPa 0,0 l/m 1,1 m/s (1 Bft) W-SW 245 0 min 0 lux 15,2 C 15,8 C
07.06.2010 01:27 15,8 C 16,5 C 13,9 C 96 % 1011 hPa 0,0 l/m 1,3 m/s (1 Bft) W-SW 240 0 min 0 lux 15,2 C 15,8 C
07.06.2010 01:33 15,8 C 16,5 C 13,8 C 96 % 1011 hPa 0,0 l/m 1,8 m/s (2 Bft) W-SW22.5 255 0 min 0 lux 15,2 C 15,8 C
07.06.2010 01:38 15,8 C 16,5 C 13,8 C 96 % 1011 hPa 0,0 l/m 1,9 m/s (2 Bft) W 260 0 min 0 lux 15,2 C 15,6 C
07.06.2010 01:43 15,8 C 16,5 C 13,8 C 96 % 1011 hPa 0,0 l/m 1,4 m/s (1 Bft) W 260 0 min 0 lux 15,2 C 15,8 C
07.06.2010 01:48 15,8 C 16,5 C 13,8 C 96 % 1011 hPa 0,0 l/m 1,9 m/s (2 Bft) W-SW 250 0 min 0 lux 15,2 C 15,6 C
07.06.2010 01:53 15,8 C 16,5 C 13,9 C 96 % 1011 hPa 0,0 l/m 2,0 m/s (2 Bft) W22.5 265 0 min 0 lux 15,2 C 15,4 C
07.06.2010 01:58 15,8 C 16,5 C 13,9 C 96 % 1011 hPa 0,0 l/m 1,3 m/s (1 Bft) SW 230 0 min 0 lux 15,2 C 15,8 C
07.06.2010 02:03 15,8 C 16,5 C 13,7 C 96 % 1011 hPa 0,0 l/m 2,2 m/s (2 Bft) W-SW22.5 245 0 min 0 lux 15,2 C 15,0 C
07.06.2010 02:08 15,8 C 16,5 C 13,7 C 96 % 1011 hPa 0,0 l/m 1,8 m/s (2 Bft) W22.5 265 0 min 0 lux 15,2 C 15,8 C
07.06.2010 02:13 15,8 C 16,5 C 14,0 C 96 % 1011 hPa 0,0 l/m 1,5 m/s (1 Bft) W-NW 285 0 min 0 lux 15,2 C 15,8 C
07.06.2010 02:18 15,8 C 16,5 C 14,1 C 96 % 1011 hPa 0,0 l/m 1,6 m/s (1 Bft) W22.5 275 0 min 0 lux 15,2 C 15,8 C
07.06.2010 02:22 15,8 C 16,5 C 14,1 C 96 % 1011 hPa 0,0 l/m 1,2 m/s (1 Bft) W 270 0 min 0 lux 15,2 C 15,8 C
07.06.2010 02:27 15,8 C 16,5 C 14,2 C 96 % 1011 hPa 0,0 l/m 0,9 m/s (1 Bft) W 260 0 min 0 lux 15,2 C 15,8 C
07.06.2010 02:32 15,8 C 16,5 C 14,2 C 96 % 1011 hPa 0,0 l/m 0,0 m/s (0 Bft) W 260 0 min 0 lux 15,2 C 15,8 C
07.06.2010 02:37 15,8 C 16,5 C 14,0 C 96 % 1011 hPa 1,8 l/m 2,4 m/s (2 Bft) W22.5 265 0 min 0 lux 15,2 C 14,6 C
07.06.2010 02:42 15,7 C 16,5 C 13,5 C 96 % 1011 hPa 1,4 l/m 2,8 m/s (2 Bft) W-SW 250 0 min 0 lux 15,1 C 13,9 C
07.06.2010 02:47 15,7 C 16,5 C 12,7 C 96 % 1011 hPa 0,4 l/m 2,1 m/s (2 Bft) W-SW22.5 245 0 min 0 lux 15,1 C 15,0 C
07.06.2010 02:52 15,6 C 16,5 C 12,6 C 96 % 1011 hPa 0,4 l/m 4,8 m/s (3 Bft) W22.5 270 0 min 0 lux 15,0 C 11,3 C
07.06.2010 02:57 15,6 C 16,5 C 12,6 C 96 % 1011 hPa 0,0 l/m 3,9 m/s (3 Bft) W22.5 265 0 min 0 lux 15,0 C 12,2 C
07.06.2010 03:02 15,6 C 16,4 C 12,5 C 95 % 1011 hPa 0,0 l/m 3,9 m/s (3 Bft) W22.5 265 0 min 0 lux 14,8 C 12,2 C
07.06.2010 03:07 15,6 C 16,5 C 12,0 C 95 % 1011 hPa 0,0 l/m 4,1 m/s (3 Bft) W-SW45 255 0 min 0 lux 14,8 C 12,0 C
07.06.2010 03:12 15,6 C 16,4 C 11,9 C 95 % 1011 hPa 0,0 l/m 3,3 m/s (2 Bft) W45 265 0 min 0 lux 14,8 C 13,0 C
07.06.2010 03:17 15,6 C 16,4 C 11,8 C 95 % 1011 hPa 0,0 l/m 3,3 m/s (2 Bft) W-SW22.5 250 0 min 0 lux 14,8 C 13,0 C
07.06.2010 03:22 15,5 C 16,4 C 11,6 C 94 % 1011 hPa 0,0 l/m 3,5 m/s (3 Bft) W-SW22.5 255 0 min 0 lux 14,5 C 12,6 C
07.06.2010 03:27 15,4 C 16,3 C 11,6 C 94 % 1011 hPa 0,0 l/m 3,1 m/s (2 Bft) W22.5 260 0 min 0 lux 14,4 C 13,1 C
07.06.2010 03:32 15,3 C 16,3 C 11,4 C 95 % 1011 hPa 0,0 l/m 3,3 m/s (2 Bft) W22.5 270 0 min 0 lux 14,5 C 12,7 C
07.06.2010 03:37 15,2 C 16,1 C 11,3 C 94 % 1011 hPa 0,0 l/m 4,9 m/s (3 Bft) W22.5 260 0 min 0 lux 14,2 C 10,6 C
07.06.2010 03:42 15,0 C 16,0 C 11,2 C 93 % 1011 hPa 0,0 l/m 5,3 m/s (3 Bft) W22.5 265 0 min 0 lux 13,9 C 10,0 C
07.06.2010 03:47 15,0 C 15,9 C 11,4 C 92 % 1011 hPa 0,0 l/m 4,0 m/s (3 Bft) W-SW22.5 255 0 min 0 lux 13,7 C 11,4 C
07.06.2010 03:52 14,9 C 15,8 C 11,3 C 92 % 1011 hPa 0,0 l/m 3,8 m/s (3 Bft) W22.5 275 0 min 0 lux 13,6 C 11,6 C
07.06.2010 03:57 14,8 C 15,8 C 11,5 C 92 % 1011 hPa 0,0 l/m 2,6 m/s (2 Bft) W45 275 0 min 0 lux 13,5 C 13,1 C
07.06.2010 04:02 14,7 C 15,7 C 11,5 C 91 % 1011 hPa 0,0 l/m 4,6 m/s (3 Bft) W45 270 0 min 0 lux 13,2 C 10,4 C
07.06.2010 04:07 14,6 C 15,6 C 11,2 C 91 % 1011 hPa 0,0 l/m 4,8 m/s (3 Bft) W22.5 275 0 min 0 lux 13,1 C 10,0 C
07.06.2010 04:12 14,5 C 15,5 C 11,3 C 91 % 1011 hPa 0,0 l/m 4,4 m/s (3 Bft) W-SW22.5 255 0 min 0 lux 13,0 C 10,3 C
07.06.2010 04:17 14,4 C 15,5 C 11,1 C 92 % 1011 hPa 0,0 l/m 3,9 m/s (3 Bft) W22.5 270 0 min 0 lux 13,1 C 10,8 C
07.06.2010 04:22 14,3 C 15,4 C 11,1 C 92 % 1011 hPa 0,0 l/m 4,0 m/s (3 Bft) W22.5 260 0 min 0 lux 13,0 C 10,5 C
07.06.2010 04:27 14,2 C 15,3 C 11,1 C 92 % 1011 hPa 0,0 l/m 5,1 m/s (3 Bft) W-SW22.5 255 0 min 0 lux 12,9 C 9,2 C
07.06.2010 04:32 14,1 C 15,1 C 10,9 C 92 % 1011 hPa 0,0 l/m 5,4 m/s (3 Bft) W45 270 0 min 0 lux 12,8 C 8,8 C
07.06.2010 04:37 13,9 C 14,9 C 10,8 C 90 % 1011 hPa 0,0 l/m 4,9 m/s (3 Bft) W45 265 0 min 0 lux 12,3 C 9,0 C
07.06.2010 04:42 13,6 C 14,7 C 10,6 C 90 % 1011 hPa 0,0 l/m 6,2 m/s (4 Bft) W45 265 0 min 0 lux 12,0 C 7,3 C
07.06.2010 04:47 13,6 C 14,5 C 10,7 C 90 % 1011 hPa 0,0 l/m 4,7 m/s (3 Bft) W22.5 260 0 min 0 lux 12,0 C 8,8 C
07.06.2010 04:52 13,4 C 14,3 C 10,4 C 89 % 1011 hPa 0,0 l/m 6,1 m/s (4 Bft) W45 260 0 min 35 lux 11,6 C 7,2 C
07.06.2010 04:57 13,3 C 14,3 C 10,6 C 89 % 1011 hPa 0,0 l/m 4,5 m/s (3 Bft) W22.5 270 0 min 67 lux 11,5 C 8,7 C
07.06.2010 05:02 13,1 C 14,1 C 10,4 C 89 % 1011 hPa 0,0 l/m 4,9 m/s (3 Bft) W45 265 0 min 123 lux 11,3 C 7,9 C
07.06.2010 05:07 13,1 C 13,9 C 10,2 C 89 % 1011 hPa 0,0 l/m 5,3 m/s (3 Bft) W45 265 0 min 217 lux 11,3 C 7,6 C
07.06.2010 05:12 12,9 C 13,8 C 10,3 C 90 % 1011 hPa 0,0 l/m 3,9 m/s (3 Bft) W-NW45 285 0 min 358 lux 11,3 C 8,9 C
07.06.2010 05:17 12,7 C 13,7 C 10,5 C 90 % 1011 hPa 0,0 l/m 3,9 m/s (3 Bft) W-NW22.5 290 0 min 544 lux 11,1 C 8,8 C
07.06.2010 05:22 12,7 C 13,5 C 10,4 C 90 % 1011 hPa 0,0 l/m 3,1 m/s (2 Bft) W22.5 275 0 min 781 lux 11,1 C 10,1 C
07.06.2010 05:27 12,4 C 13,5 C 10,4 C 90 % 1011 hPa 0,0 l/m 2,4 m/s (2 Bft) W22.5 265 0 min 1,06 klux 10,8 C 11,1 C
07.06.2010 05:32 12,4 C 13,3 C 10,3 C 90 % 1011 hPa 0,0 l/m 3,1 m/s (2 Bft) W-SW22.5 240 0 min 1,44 klux 10,8 C 9,6 C
07.06.2010 05:37 12,3 C 13,2 C 10,2 C 90 % 1011 hPa 0,0 l/m 2,9 m/s (2 Bft) W-SW22.5 250 0 min 1,88 klux 10,7 C 10,0 C
07.06.2010 05:42 12,2 C 13,0 C 10,3 C 90 % 1011 hPa 0,0 l/m 0,1 m/s (0 Bft) W-SW 255 0 min 2,27 klux 10,6 C 12,2 C
07.06.2010 05:47 12,0 C 13,0 C 10,2 C 91 % 1011 hPa 0,0 l/m 1,4 m/s (1 Bft) W-SW 245 0 min 2,50 klux 10,6 C 12,0 C
07.06.2010 05:52 11,9 C 12,8 C 10,3 C 91 % 1012 hPa 0,0 l/m 1,4 m/s (1 Bft) W-SW 245 0 min 2,90 klux 10,5 C 11,9 C
07.06.2010 05:57 11,8 C 12,7 C 10,1 C 91 % 1012 hPa 0,0 l/m 1,3 m/s (1 Bft) W-SW 245 0 min 3,36 klux 10,4 C 11,8 C
07.06.2010 06:02 11,7 C 12,6 C 10,0 C 91 % 1012 hPa 0,0 l/m 1,3 m/s (1 Bft) W-SW 250 0 min 3,81 klux 10,3 C 11,7 C
07.06.2010 06:07 11,6 C 12,5 C 10,0 C 91 % 1012 hPa 0,0 l/m 1,3 m/s (1 Bft) W-SW 255 0 min 4,27 klux 10,2 C 11,6 C
07.06.2010 06:12 11,6 C 12,5 C 10,0 C 91 % 1012 hPa 0,0 l/m 1,9 m/s (2 Bft) W22.5 260 0 min 4,84 klux 10,2 C 11,4 C
07.06.2010 06:17 11,6 C 12,3 C 9,7 C 91 % 1012 hPa 0,0 l/m 1,4 m/s (1 Bft) W-SW22.5 250 0 min 5,40 klux 10,2 C 11,6 C
07.06.2010 06:22 11,6 C 12,3 C 10,1 C 90 % 1012 hPa 0,0 l/m 3,6 m/s (3 Bft) W-SW22.5 240 0 min 6,02 klux 10,0 C 8,0 C
07.06.2010 06:27 11,6 C 12,3 C 10,0 C 90 % 1012 hPa 0,0 l/m 1,6 m/s (2 Bft) SW 235 0 min 6,63 klux 10,0 C 11,6 C
07.06.2010 06:32 11,6 C 12,3 C 9,8 C 90 % 1012 hPa 0,0 l/m 1,2 m/s (1 Bft) SW 235 0 min 6,75 klux 10,0 C 11,6 C
07.06.2010 06:37 11,6 C 12,2 C 10,1 C 90 % 1012 hPa 0,0 l/m 0,0 m/s (0 Bft) W-SW 240 0 min 6,75 klux 10,0 C 11,6 C
07.06.2010 06:42 11,7 C 12,2 C 9,9 C 90 % 1012 hPa 0,0 l/m 0,0 m/s (0 Bft) W-SW 240 5 min 20,0 klux 10,1 C 11,7 C
07.06.2010 06:47 12,8 C 12,1 C 10,0 C 89 % 1012 hPa 0,0 l/m 0,2 m/s (0 Bft) W-SW 240 5 min 21,6 klux 11,0 C 12,8 C
07.06.2010 06:52 14,4 C 12,2 C 10,0 C 88 % 1012 hPa 0,0 l/m 0,0 m/s (0 Bft) W-SW 240 5 min 23,0 klux 12,4 C 14,4 C
07.06.2010 06:57 15,7 C 12,2 C 9,9 C 83 % 1012 hPa 0,0 l/m 0,0 m/s (0 Bft) W-SW 240 5 min 26,2 klux 12,8 C 15,7 C
07.06.2010 07:03 16,4 C 12,3 C 10,1 C 78 % 1012 hPa 0,0 l/m 0,0 m/s (0 Bft) W-SW 240 6 min 27,7 klux 12,6 C 16,4 C
07.06.2010 07:08 17,2 C 12,3 C 10,8 C 73 % 1012 hPa 0,0 l/m 0,0 m/s (0 Bft) W-SW 240 5 min 28,5 klux 12,3 C 17,2 C
07.06.2010 07:13 17,2 C 12,3 C 11,8 C 70 % 1012 hPa 0,0 l/m 3,2 m/s (2 Bft) W22.5 260 5 min 30,8 klux 11,7 C 15,0 C
07.06.2010 07:18 16,8 C 12,4 C 13,4 C 69 % 1012 hPa 0,0 l/m 3,6 m/s (3 Bft) W22.5 260 5 min 31,6 klux 11,1 C 14,1 C
07.06.2010 07:23 16,9 C 12,5 C 13,3 C 71 % 1012 hPa 0,0 l/m 2,1 m/s (2 Bft) W45 265 5 min 35,5 klux 11,6 C 16,3 C
07.06.2010 07:28 16,3 C 12,6 C 12,4 C 71 % 1012 hPa 0,0 l/m 2,7 m/s (2 Bft) W22.5 275 5 min 27,0 klux 11,0 C 14,7 C
07.06.2010 07:33 15,6 C 12,7 C 11,7 C 74 % 1012 hPa 0,0 l/m 2,6 m/s (2 Bft) W-SW22.5 255 0 min 18,5 klux 11,0 C 14,1 C
07.06.2010 07:38 15,0 C 13,0 C 11,5 C 76 % 1012 hPa 0,0 l/m 2,3 m/s (2 Bft) W-SW22.5 245 0 min 19,0 klux 10,8 C 14,0 C
07.06.2010 07:43 13,9 C 13,2 C 11,5 C 82 % 1012 hPa 0,0 l/m 2,5 m/s (2 Bft) W-SW22.5 255 0 min 14,1 klux 10,9 C 12,5 C
07.06.2010 07:48 13,7 C 13,3 C 11,3 C 83 % 1012 hPa 0,0 l/m 2,4 m/s (2 Bft) W45 280 0 min 13,1 klux 10,9 C 12,4 C
07.06.2010 07:53 13,4 C 13,4 C 11,1 C 85 % 1012 hPa 0,0 l/m 3,7 m/s (3 Bft) W-SW22.5 245 0 min 11,7 klux 10,9 C 9,9 C
07.06.2010 07:58 13,3 C 13,5 C 11,2 C 85 % 1012 hPa 0,0 l/m 3,0 m/s (2 Bft) W-SW22.5 255 0 min 10,7 klux 10,8 C 10,8 C
07.06.2010 08:03 13,3 C 13,6 C 11,3 C 86 % 1012 hPa 0,0 l/m 3,1 m/s (2 Bft) W-SW22.5 255 0 min 12,1 klux 11,0 C 10,8 C
07.06.2010 08:08 13,2 C 13,7 C 11,2 C 86 % 1012 hPa 0,0 l/m 3,8 m/s (3 Bft) W-SW22.5 250 0 min 10,4 klux 10,9 C 9,6 C
07.06.2010 08:13 13,3 C 13,7 C 11,1 C 86 % 1012 hPa 0,0 l/m 3,4 m/s (2 Bft) W22.5 265 0 min 8,61 klux 11,0 C 10,2 C
07.06.2010 08:18 13,3 C 13,8 C 11,0 C 86 % 1012 hPa 0,0 l/m 3,1 m/s (2 Bft) W45 275 0 min 7,32 klux 11,0 C 10,7 C
07.06.2010 08:23 13,2 C 13,8 C 11,1 C 86 % 1013 hPa 0,0 l/m 3,6 m/s (3 Bft) W-NW22.5 285 0 min 7,05 klux 10,9 C 9,8 C
07.06.2010 08:28 13,2 C 13,9 C 10,9 C 87 % 1013 hPa 0,0 l/m 3,6 m/s (3 Bft) W45 270 0 min 7,38 klux 11,1 C 9,7 C
07.06.2010 08:33 13,2 C 13,9 C 11,3 C 87 % 1013 hPa 0,0 l/m 2,9 m/s (2 Bft) W22.5 265 0 min 7,14 klux 11,1 C 10,9 C
07.06.2010 08:38 13,3 C 13,9 C 10,8 C 86 % 1013 hPa 0,0 l/m 7,1 m/s (4 Bft) W45 270 0 min 9,7 klux 11,0 C 6,2 C
07.06.2010 08:43 13,4 C 14,0 C 10,8 C 86 % 1013 hPa 0,0 l/m 4,4 m/s (3 Bft) W22.5 270 0 min 9,00 klux 11,1 C 8,9 C
07.06.2010 08:47 13,4 C 14,0 C 10,9 C 86 % 1013 hPa 0,0 l/m 5,5 m/s (4 Bft) W45 260 0 min 8,22 klux 11,1 C 7,7 C
07.06.2010 08:52 13,4 C 14,0 C 10,9 C 86 % 1013 hPa 0,0 l/m 5,2 m/s (3 Bft) W45 270 0 min 11,1 klux 11,1 C 8,0 C
07.06.2010 08:57 13,5 C 14,0 C 11,3 C 86 % 1013 hPa 0,0 l/m 3,2 m/s (2 Bft) W-SW22.5 250 0 min 11,7 klux 11,2 C 10,7 C
07.06.2010 09:02 13,4 C 14,1 C 11,1 C 86 % 1013 hPa 0,0 l/m 4,1 m/s (3 Bft) W22.5 265 0 min 9,4 klux 11,1 C 9,3 C
07.06.2010 09:07 13,5 C 14,1 C 11,2 C 86 % 1013 hPa 0,0 l/m 3,0 m/s (2 Bft) W-SW22.5 250 0 min 11,2 klux 11,2 C 11,1 C
07.06.2010 09:12 13,6 C 14,1 C 11,4 C 86 % 1013 hPa 0,0 l/m 1,5 m/s (1 Bft) W-SW22.5 245 0 min 11,6 klux 11,3 C 13,6 C
07.06.2010 09:17 13,7 C 14,2 C 11,3 C 86 % 1013 hPa 0,0 l/m 3,6 m/s (3 Bft) W-SW45 250 0 min 9,3 klux 11,4 C 10,4 C
07.06.2010 09:22 13,9 C 14,3 C 11,5 C 86 % 1013 hPa 0,0 l/m 5,5 m/s (3 Bft) W45 270 0 min 14,0 klux 11,6 C 8,4 C
07.06.2010 09:27 13,9 C 14,3 C 11,6 C 86 % 1013 hPa 0,0 l/m 2,9 m/s (2 Bft) W-SW45 250 0 min 10,3 klux 11,6 C 11,7 C
07.06.2010 09:32 13,8 C 14,4 C 11,5 C 86 % 1013 hPa 0,0 l/m 4,5 m/s (3 Bft) W22.5 260 0 min 12,1 klux 11,5 C 9,3 C
07.06.2010 09:37 13,9 C 14,5 C 11,7 C 86 % 1013 hPa 0,0 l/m 4,9 m/s (3 Bft) W22.5 265 0 min 16,1 klux 11,6 C 9,0 C
07.06.2010 09:42 14,0 C 14,6 C 11,8 C 86 % 1013 hPa 0,0 l/m 2,9 m/s (2 Bft) W-SW22.5 250 0 min 18,5 klux 11,7 C 11,8 C
07.06.2010 09:47 14,2 C 14,7 C 12,0 C 85 % 1013 hPa 0,0 l/m 3,5 m/s (3 Bft) W45 265 0 min 21,1 klux 11,7 C 11,1 C
07.06.2010 09:52 14,3 C 14,8 C 12,0 C 84 % 1013 hPa 0,0 l/m 4,1 m/s (3 Bft) W22.5 260 0 min 16,4 klux 11,6 C 10,4 C
07.06.2010 09:57 14,4 C 14,9 C 12,0 C 84 % 1013 hPa 0,0 l/m 4,2 m/s (3 Bft) W22.5 260 0 min 20,4 klux 11,7 C 10,5 C
07.06.2010 10:02 14,6 C 15,0 C 12,2 C 83 % 1013 hPa 0,0 l/m 3,9 m/s (3 Bft) W-SW45 255 0 min 18,9 klux 11,7 C 11,1 C
07.06.2010 10:07 14,7 C 15,2 C 12,4 C 84 % 1013 hPa 0,0 l/m 3,3 m/s (2 Bft) W22.5 260 0 min 20,4 klux 12,0 C 12,0 C
07.06.2010 10:12 14,7 C 15,3 C 12,5 C 83 % 1013 hPa 0,0 l/m 3,9 m/s (3 Bft) W45 270 0 min 17,5 klux 11,8 C 11,1 C
07.06.2010 10:17 14,7 C 15,3 C 12,3 C 82 % 1013 hPa 0,0 l/m 4,0 m/s (3 Bft) W22.5 270 0 min 15,0 klux 11,7 C 11,0 C
07.06.2010 10:22 14,8 C 15,3 C 12,3 C 82 % 1013 hPa 0,0 l/m 3,0 m/s (2 Bft) W22.5 260 0 min 15,5 klux 11,8 C 12,5 C
07.06.2010 10:27 14,8 C 15,4 C 12,4 C 82 % 1013 hPa 0,0 l/m 3,8 m/s (3 Bft) W45 270 0 min 15,3 klux 11,8 C 11,5 C
07.06.2010 10:32 14,8 C 15,3 C 12,2 C 82 % 1013 hPa 0,0 l/m 3,6 m/s (3 Bft) W45 275 0 min 14,0 klux 11,8 C 11,7 C
07.06.2010 10:37 14,7 C 15,4 C 12,4 C 82 % 1013 hPa 0,0 l/m 1,8 m/s (2 Bft) W22.5 275 0 min 15,3 klux 11,7 C 14,6 C
07.06.2010 10:42 14,7 C 15,4 C 12,5 C 82 % 1013 hPa 0,0 l/m 2,7 m/s (2 Bft) W22.5 270 0 min 12,2 klux 11,7 C 13,0 C
07.06.2010 10:47 14,6 C 15,4 C 12,5 C 83 % 1013 hPa 0,0 l/m 3,7 m/s (3 Bft) W45 280 0 min 18,2 klux 11,7 C 11,3 C
07.06.2010 10:53 14,7 C 15,4 C 12,6 C 83 % 1013 hPa 0,0 l/m 3,4 m/s (3 Bft) W-NW22.5 300 0 min 18,8 klux 11,8 C 11,8 C
07.06.2010 10:58 14,7 C 15,5 C 12,6 C 82 % 1013 hPa 0,0 l/m 3,7 m/s (3 Bft) W-NW45 285 0 min 20,0 klux 11,7 C 11,4 C
07.06.2010 11:03 15,0 C 15,5 C 12,6 C 81 % 1013 hPa 0,0 l/m 3,5 m/s (3 Bft) W45 260 0 min 21,9 klux 11,8 C 12,0 C
07.06.2010 11:07 15,1 C 15,7 C 13,0 C 81 % 1013 hPa 0,0 l/m 3,2 m/s (2 Bft) W45 275 0 min 22,7 klux 11,9 C 12,5 C
07.06.2010 11:12 15,4 C 15,8 C 13,2 C 80 % 1013 hPa 0,0 l/m 1,4 m/s (1 Bft) W 270 0 min 21,2 klux 12,0 C 15,4 C
07.06.2010 11:17 15,5 C 15,9 C 13,3 C 80 % 1013 hPa 0,0 l/m 2,3 m/s (2 Bft) W-SW 255 0 min 20,1 klux 12,1 C 14,4 C
07.06.2010 11:22 15,7 C 15,9 C 13,2 C 79 % 1013 hPa 0,0 l/m 2,6 m/s (2 Bft) W-SW22.5 245 0 min 21,9 klux 12,1 C 14,2 C
07.06.2010 11:27 15,6 C 16,0 C 13,2 C 79 % 1013 hPa 0,0 l/m 2,7 m/s (2 Bft) W22.5 270 0 min 18,1 klux 12,0 C 13,9 C
07.06.2010 11:32 15,5 C 16,0 C 13,1 C 78 % 1013 hPa 0,0 l/m 3,5 m/s (3 Bft) W-SW45 255 0 min 22,2 klux 11,7 C 12,6 C
07.06.2010 11:37 15,6 C 16,1 C 13,6 C 79 % 1013 hPa 0,0 l/m 1,9 m/s (2 Bft) W-SW 250 0 min 36,4 klux 12,0 C 15,4 C
07.06.2010 11:43 15,8 C 16,3 C 13,6 C 76 % 1013 hPa 0,0 l/m 2,9 m/s (2 Bft) W22.5 275 0 min 33,5 klux 11,6 C 13,9 C
07.06.2010 11:48 16,2 C 16,4 C 13,7 C 76 % 1013 hPa 0,0 l/m 4,9 m/s (3 Bft) W22.5 275 0 min 33,0 klux 12,0 C 11,8 C
07.06.2010 11:53 16,6 C 16,7 C 14,2 C 74 % 1013 hPa 0,0 l/m 2,9 m/s (2 Bft) W-NW22.5 285 0 min 33,0 klux 11,9 C 14,7 C
07.06.2010 11:57 16,8 C 17,0 C 14,6 C 74 % 1013 hPa 0,0 l/m 3,7 m/s (3 Bft) W-SW22.5 255 0 min 48,8 klux 12,1 C 13,9 C
07.06.2010 12:02 17,2 C 17,2 C 14,7 C 73 % 1013 hPa 0,0 l/m 3,9 m/s (3 Bft) W45 265 0 min 44,8 klux 12,3 C 14,1 C
07.06.2010 12:07 17,3 C 17,5 C 14,8 C 71 % 1013 hPa 0,0 l/m 2,6 m/s (2 Bft) W22.5 265 0 min 64,3 klux 12,0 C 16,0 C
07.06.2010 12:12 17,5 C 18,3 C 16,0 C 72 % 1013 hPa 0,0 l/m 3,9 m/s (3 Bft) W22.5 260 5 min 111 klux 12,4 C 14,5 C
07.06.2010 12:17 18,2 C 19,2 C 16,0 C 69 % 1013 hPa 0,0 l/m 3,9 m/s (3 Bft) W22.5 260 5 min 121 klux 12,4 C 15,3 C
07.06.2010 12:22 18,4 C 20,0 C 16,8 C 70 % 1013 hPa 0,0 l/m 2,6 m/s (2 Bft) W-SW22.5 255 0 min 43,5 klux 12,8 C 17,1 C
07.06.2010 12:27 18,4 C 19,6 C 16,4 C 68 % 1013 hPa 0,0 l/m 2,9 m/s (2 Bft) SW22.5 230 0 min 22,9 klux 12,4 C 16,7 C
07.06.2010 12:33 18,2 C 19,3 C 16,1 C 69 % 1013 hPa 0,0 l/m 3,6 m/s (3 Bft) W22.5 270 0 min 42,4 klux 12,4 C 15,7 C
07.06.2010 12:38 17,5 C 19,2 C 15,7 C 69 % 1013 hPa 0,0 l/m 2,8 m/s (2 Bft) W45 280 0 min 32,5 klux 11,7 C 15,9 C
07.06.2010 12:42 17,6 C 19,1 C 16,1 C 72 % 1013 hPa 0,0 l/m 0,0 m/s (0 Bft) NW22.5 305 0 min 36,3 klux 12,5 C 17,6 C
07.06.2010 12:47 18,0 C 19,2 C 16,5 C 71 % 1013 hPa 0,0 l/m 1,3 m/s (1 Bft) W-SW22.5 250 0 min 43,7 klux 12,7 C 18,0 C
07.06.2010 12:52 18,7 C 19,4 C 16,7 C 70 % 1013 hPa 0,0 l/m 0,1 m/s (0 Bft) W-SW 240 0 min 59,3 klux 13,1 C 18,7 C
07.06.2010 12:57 18,9 C 19,8 C 16,3 C 70 % 1013 hPa 0,0 l/m 2,9 m/s (2 Bft) S45 180 0 min 51,1 klux 13,3 C 17,3 C
07.06.2010 13:02 18,8 C 19,6 C 16,4 C 70 % 1013 hPa 0,0 l/m 0,1 m/s (0 Bft) S-SO22.5 150 0 min 35,4 klux 13,2 C 18,8 C
07.06.2010 13:07 18,8 C 19,6 C 16,3 C 71 % 1013 hPa 0,0 l/m 0,2 m/s (0 Bft) S45 170 0 min 63,7 klux 13,4 C 18,8 C
07.06.2010 13:12 18,5 C 19,6 C 16,0 C 70 % 1013 hPa 0,0 l/m 2,5 m/s (2 Bft) S-SO45 155 0 min 30,7 klux 12,9 C 17,4 C
07.06.2010 13:17 18,4 C 19,6 C 16,0 C 71 % 1013 hPa 0,0 l/m 0,2 m/s (0 Bft) SO22.5 140 0 min 28,2 klux 13,0 C 18,4 C
07.06.2010 13:22 18,6 C 19,3 C 16,2 C 71 % 1013 hPa 0,0 l/m 1,9 m/s (2 Bft) S22.5 175 0 min 26,7 klux 13,2 C 18,4 C
07.06.2010 13:27 18,0 C 19,1 C 15,9 C 70 % 1013 hPa 0,0 l/m 2,1 m/s (2 Bft) SW22.5 215 0 min 18,5 klux 12,4 C 17,5 C
07.06.2010 13:32 17,9 C 18,9 C 15,6 C 71 % 1013 hPa 0,0 l/m 0,1 m/s (0 Bft) SW 225 0 min 16,6 klux 12,6 C 17,9 C
07.06.2010 13:37 17,5 C 18,8 C 15,8 C 72 % 1013 hPa 0,0 l/m 2,1 m/s (2 Bft) W22.5 265 0 min 22,8 klux 12,4 C 16,9 C
07.06.2010 13:42 17,9 C 19,4 C 16,5 C 74 % 1013 hPa 0,0 l/m 0,3 m/s (0 Bft) W-SW 255 5 min 110 klux 13,2 C 17,9 C
07.06.2010 13:47 18,3 C 21,2 C 17,3 C 75 % 1013 hPa 0,0 l/m 1,6 m/s (1 Bft) S-SW45 205 5 min 109 klux 13,8 C 18,3 C
07.06.2010 13:52 19,4 C 23,0 C 18,7 C 68 % 1013 hPa 0,0 l/m 0,1 m/s (0 Bft) S22.5 180 5 min 114 klux 13,3 C 19,4 C
07.06.2010 13:57 20,2 C 24,0 C 18,9 C 66 % 1013 hPa 0,0 l/m 0,1 m/s (0 Bft) S-SW22.5 205 5 min 114 klux 13,6 C 20,2 C
07.06.2010 14:02 20,4 C 24,4 C 18,8 C 65 % 1013 hPa 0,0 l/m 2,5 m/s (2 Bft) W-SW67.5 250 5 min 114 klux 13,6 C 19,4 C
07.06.2010 14:07 20,8 C 25,5 C 20,3 C 65 % 1013 hPa 0,0 l/m 2,1 m/s (2 Bft) SW22.5 225 5 min 118 klux 14,0 C 20,4 C
07.06.2010 14:12 20,8 C 24,4 C 18,9 C 62 % 1012 hPa 0,0 l/m 2,8 m/s (2 Bft) SW67.5 215 0 min 26,4 klux 13,2 C 19,5 C
07.06.2010 14:17 20,0 C 23,8 C 18,1 C 62 % 1012 hPa 0,0 l/m 3,3 m/s (2 Bft) W-SW67.5 240 0 min 17,6 klux 12,5 C 18,1 C
07.06.2010 14:22 19,5 C 23,0 C 18,1 C 64 % 1012 hPa 0,0 l/m 4,0 m/s (3 Bft) W-SW22.5 250 0 min 37,3 klux 12,5 C 16,8 C
07.06.2010 14:27 18,8 C 22,2 C 17,8 C 68 % 1013 hPa 0,0 l/m 5,1 m/s (3 Bft) W45 275 0 min 17,9 klux 12,8 C 15,0 C
07.06.2010 14:32 18,6 C 22,0 C 17,8 C 69 % 1013 hPa 0,0 l/m 3,5 m/s (3 Bft) W-NW22.5 290 0 min 22,2 klux 12,8 C 16,3 C
07.06.2010 14:37 18,9 C 21,8 C 18,4 C 70 % 1013 hPa 0,0 l/m 2,5 m/s (2 Bft) W-NW22.5 285 0 min 39,1 klux 13,3 C 17,8 C
07.06.2010 14:42 19,1 C 21,9 C 18,7 C 67 % 1013 hPa 0,0 l/m 3,7 m/s (3 Bft) W22.5 275 0 min 33,1 klux 12,8 C 16,6 C
07.06.2010 14:47 19,0 C 21,4 C 18,2 C 66 % 1013 hPa 0,0 l/m 3,6 m/s (3 Bft) W-NW22.5 300 0 min 29,5 klux 12,5 C 16,6 C
07.06.2010 14:52 18,8 C 21,2 C 17,8 C 68 % 1013 hPa 0,0 l/m 3,9 m/s (3 Bft) NW22.5 305 0 min 18,4 klux 12,8 C 16,1 C
07.06.2010 14:57 18,8 C 20,7 C 17,9 C 68 % 1013 hPa 0,0 l/m 3,3 m/s (2 Bft) W-NW22.5 295 0 min 22,0 klux 12,8 C 16,7 C
07.06.2010 15:02 18,8 C 20,6 C 18,2 C 67 % 1013 hPa 0,0 l/m 3,1 m/s (2 Bft) W-NW22.5 285 5 min 101 klux 12,5 C 16,9 C
07.06.2010 15:08 19,4 C 22,0 C 18,3 C 67 % 1012 hPa 0,0 l/m 3,6 m/s (3 Bft) W45 275 6 min 72,2 klux 13,1 C 17,1 C
07.06.2010 15:13 19,8 C 23,6 C 18,4 C 65 % 1012 hPa 0,0 l/m 3,7 m/s (3 Bft) SW22.5 235 5 min 98,9 klux 13,0 C 17,4 C
07.06.2010 15:18 20,5 C 24,9 C 18,5 C 65 % 1012 hPa 0,0 l/m 2,3 m/s (2 Bft) S-SW45 205 5 min 98,0 klux 13,7 C 19,8 C
07.06.2010 15:23 21,2 C 25,3 C 18,5 C 62 % 1012 hPa 0,0 l/m 4,6 m/s (3 Bft) W-SW45 245 5 min 90,9 klux 13,6 C 18,4 C
07.06.2010 15:28 21,6 C 26,0 C 18,8 C 59 % 1012 hPa 0,0 l/m 3,5 m/s (3 Bft) W-SW45 245 5 min 101 klux 13,2 C 19,7 C
07.06.2010 15:33 22,0 C 26,3 C 18,6 C 55 % 1012 hPa 0,0 l/m 4,4 m/s (3 Bft) W-SW45 245 5 min 108 klux 12,5 C 19,5 C
07.06.2010 15:38 21,7 C 26,0 C 18,7 C 56 % 1012 hPa 0,0 l/m 5,6 m/s (4 Bft) W67.5 260 5 min 79,9 klux 12,5 C 18,4 C
07.06.2010 15:43 21,4 C 25,5 C 18,7 C 55 % 1012 hPa 0,0 l/m 3,9 m/s (3 Bft) W45 265 5 min 62,5 klux 12,0 C 19,2 C
07.06.2010 15:48 21,4 C 25,8 C 18,6 C 52 % 1012 hPa 0,0 l/m 7,6 m/s (4 Bft) W45 275 5 min 103 klux 11,1 C 17,0 C
07.06.2010 15:53 21,4 C 26,0 C 18,5 C 51 % 1012 hPa 0,0 l/m 5,4 m/s (3 Bft) W45 260 5 min 96,5 klux 10,8 C 18,1 C
07.06.2010 15:58 21,1 C 26,0 C 18,5 C 51 % 1012 hPa 0,0 l/m 6,8 m/s (4 Bft) W22.5 260 0 min 30,3 klux 10,6 C 16,9 C
07.06.2010 16:03 20,8 C 25,2 C 18,3 C 54 % 1012 hPa 0,0 l/m 5,4 m/s (3 Bft) W45 260 0 min 26,3 klux 11,1 C 17,3 C
07.06.2010 16:08 20,4 C 24,2 C 18,4 C 54 % 1012 hPa 0,0 l/m 5,2 m/s (3 Bft) W22.5 260 0 min 21,9 klux 10,8 C 17,0 C
07.06.2010 16:13 20,3 C 23,7 C 18,2 C 54 % 1012 hPa 0,0 l/m 4,4 m/s (3 Bft) W22.5 265 0 min 37,1 klux 10,7 C 17,4 C
07.06.2010 16:18 20,5 C 23,9 C 18,6 C 55 % 1012 hPa 0,0 l/m 3,8 m/s (3 Bft) W22.5 265 5 min 101 klux 11,1 C 18,2 C
07.06.2010 16:23 20,8 C 24,8 C 18,6 C 54 % 1012 hPa 0,0 l/m 4,9 m/s (3 Bft) W-SW67.5 245 0 min 28,5 klux 11,1 C 17,6 C
07.06.2010 16:28 20,6 C 24,0 C 18,2 C 55 % 1012 hPa 0,0 l/m 4,0 m/s (3 Bft) W22.5 260 0 min 29,5 klux 11,2 C 18,1 C
07.06.2010 16:33 20,4 C 23,8 C 18,2 C 54 % 1012 hPa 0,0 l/m 4,2 m/s (3 Bft) W22.5 260 0 min 27,8 klux 10,8 C 17,7 C
07.06.2010 16:38 20,2 C 23,5 C 18,2 C 54 % 1012 hPa 0,0 l/m 3,2 m/s (2 Bft) W-SW22.5 240 0 min 22,2 klux 10,6 C 18,4 C
07.06.2010 16:43 20,6 C 23,4 C 18,3 C 54 % 1012 hPa 0,0 l/m 2,1 m/s (2 Bft) W-SW22.5 240 0 min 35,3 klux 11,0 C 20,1 C
07.06.2010 16:48 20,6 C 23,7 C 18,5 C 55 % 1012 hPa 0,0 l/m 2,2 m/s (2 Bft) SW 230 0 min 23,6 klux 11,2 C 20,0 C
07.06.2010 16:53 20,5 C 23,1 C 18,1 C 56 % 1012 hPa 0,0 l/m 3,7 m/s (3 Bft) W-SW22.5 240 0 min 13,3 klux 11,4 C 18,2 C
07.06.2010 16:58 20,2 C 22,6 C 18,2 C 58 % 1012 hPa 0,0 l/m 3,3 m/s (2 Bft) SW22.5 230 0 min 14,1 klux 11,7 C 18,3 C
07.06.2010 17:03 20,1 C 22,2 C 17,8 C 58 % 1012 hPa 0,0 l/m 3,8 m/s (3 Bft) W-SW22.5 240 0 min 15,7 klux 11,6 C 17,7 C
07.06.2010 17:08 20,2 C 22,2 C 18,0 C 57 % 1012 hPa 0,0 l/m 3,9 m/s (3 Bft) W-SW22.5 245 5 min 58,4 klux 11,4 C 17,7 C
07.06.2010 17:12 20,5 C 22,5 C 18,4 C 58 % 1012 hPa 0,0 l/m 3,7 m/s (3 Bft) SW45 220 4 min 50,5 klux 11,9 C 18,2 C
07.06.2010 17:17 21,4 C 22,9 C 18,8 C 57 % 1012 hPa 0,0 l/m 2,7 m/s (2 Bft) SW45 225 5 min 83,8 klux 12,5 C 20,3 C
07.06.2010 17:22 21,7 C 24,7 C 19,3 C 57 % 1012 hPa 0,0 l/m 3,5 m/s (3 Bft) SW45 235 5 min 73,1 klux 12,8 C 19,9 C
07.06.2010 17:27 21,3 C 24,8 C 19,1 C 56 % 1012 hPa 0,0 l/m 4,1 m/s (3 Bft) W-SW45 255 5 min 71,3 klux 12,2 C 18,8 C
07.06.2010 17:32 21,3 C 25,2 C 19,4 C 56 % 1012 hPa 0,0 l/m 3,1 m/s (2 Bft) SW22.5 235 5 min 66,3 klux 12,2 C 19,8 C
07.06.2010 17:37 21,1 C 25,2 C 18,9 C 57 % 1012 hPa 0,0 l/m 4,3 m/s (3 Bft) SW67.5 225 0 min 26,4 klux 12,2 C 18,5 C
07.06.2010 17:42 20,8 C 23,9 C 18,6 C 57 % 1012 hPa 0,0 l/m 3,1 m/s (2 Bft) SW45 220 0 min 26,3 klux 12,0 C 19,2 C
07.06.2010 17:47 20,8 C 23,6 C 18,7 C 57 % 1012 hPa 0,0 l/m 3,3 m/s (2 Bft) SW67.5 225 0 min 23,3 klux 12,0 C 19,0 C
07.06.2010 17:52 20,6 C 23,2 C 18,3 C 57 % 1012 hPa 0,0 l/m 3,6 m/s (3 Bft) S-SW45 195 0 min 19,9 klux 11,8 C 18,5 C
07.06.2010 17:57 20,5 C 23,0 C 18,2 C 57 % 1012 hPa 0,0 l/m 4,7 m/s (3 Bft) SW67.5 220 0 min 40,0 klux 11,7 C 17,4 C
07.06.2010 18:02 20,6 C 22,9 C 18,3 C 58 % 1012 hPa 0,0 l/m 4,6 m/s (3 Bft) SW45 235 0 min 22,5 klux 12,0 C 17,7 C
07.06.2010 18:07 20,5 C 22,6 C 18,5 C 58 % 1012 hPa 0,0 l/m 2,2 m/s (2 Bft) SW22.5 225 0 min 20,0 klux 11,9 C 19,9 C
07.06.2010 18:12 20,4 C 22,5 C 18,1 C 58 % 1012 hPa 0,0 l/m 4,0 m/s (3 Bft) W-SW45 240 0 min 23,4 klux 11,9 C 17,9 C
07.06.2010 18:17 20,5 C 22,6 C 18,3 C 58 % 1012 hPa 0,0 l/m 3,3 m/s (2 Bft) SW67.5 230 0 min 28,7 klux 11,9 C 18,6 C
07.06.2010 18:22 20,7 C 22,6 C 18,4 C 57 % 1012 hPa 0,0 l/m 4,3 m/s (3 Bft) SW67.5 225 0 min 30,6 klux 11,9 C 18,0 C
07.06.2010 18:27 20,7 C 22,5 C 18,3 C 57 % 1012 hPa 0,0 l/m 3,2 m/s (2 Bft) W-SW45 240 5 min 51,3 klux 11,9 C 19,0 C
07.06.2010 18:32 20,9 C 23,0 C 18,3 C 57 % 1012 hPa 0,0 l/m 3,6 m/s (3 Bft) W-SW22.5 245 5 min 51,3 klux 12,1 C 18,9 C
07.06.2010 18:37 20,9 C 24,4 C 18,9 C 57 % 1012 hPa 0,0 l/m 3,1 m/s (2 Bft) W-SW22.5 240 5 min 48,5 klux 12,1 C 19,3 C
07.06.2010 18:42 20,9 C 25,1 C 18,8 C 57 % 1011 hPa 0,0 l/m 3,3 m/s (2 Bft) W-SW22.5 240 5 min 46,7 klux 12,1 C 19,1 C
07.06.2010 18:47 21,0 C 25,2 C 18,2 C 53 % 1011 hPa 0,0 l/m 3,9 m/s (3 Bft) W-SW22.5 250 0 min 14,6 klux 11,0 C 18,7 C
07.06.2010 18:52 20,4 C 24,4 C 18,0 C 54 % 1011 hPa 0,0 l/m 3,6 m/s (3 Bft) W-SW22.5 245 5 min 37,3 klux 10,8 C 18,2 C
07.06.2010 18:57 20,2 C 23,6 C 17,9 C 56 % 1011 hPa 0,0 l/m 3,3 m/s (2 Bft) W-SW22.5 240 0 min 20,5 klux 11,1 C 18,3 C
07.06.2010 19:02 20,0 C 23,2 C 17,8 C 56 % 1011 hPa 0,0 l/m 2,8 m/s (2 Bft) SW45 225 0 min 18,4 klux 11,0 C 18,7 C
07.06.2010 19:07 20,0 C 22,9 C 17,8 C 57 % 1011 hPa 0,0 l/m 2,2 m/s (2 Bft) S-SW22.5 210 5 min 33,7 klux 11,2 C 19,4 C
07.06.2010 19:12 22,0 C 23,4 C 18,0 C 51 % 1011 hPa 0,0 l/m 2,3 m/s (2 Bft) W-SW22.5 245 5 min 36,3 klux 11,4 C 21,3 C
07.06.2010 19:17 22,7 C 24,0 C 17,9 C 50 % 1011 hPa 0,0 l/m 2,9 m/s (2 Bft) W-SW22.5 245 5 min 36,2 klux 11,7 C 21,5 C
07.06.2010 19:22 22,5 C 23,9 C 17,7 C 50 % 1011 hPa 0,0 l/m 2,5 m/s (2 Bft) W-SW22.5 245 5 min 30,2 klux 11,5 C 21,6 C
07.06.2010 19:27 22,0 C 23,8 C 17,9 C 52 % 1011 hPa 0,0 l/m 2,8 m/s (2 Bft) SW22.5 230 0 min 19,2 klux 11,7 C 20,8 C
07.06.2010 19:32 21,5 C 23,2 C 17,5 C 54 % 1011 hPa 0,0 l/m 2,1 m/s (2 Bft) W-SW45 250 0 min 13,9 klux 11,8 C 21,1 C
07.06.2010 19:37 20,4 C 23,2 C 17,4 C 56 % 1011 hPa 0,0 l/m 2,8 m/s (2 Bft) W22.5 260 0 min 12,5 klux 11,3 C 19,1 C
07.06.2010 19:42 19,9 C 22,3 C 17,1 C 57 % 1011 hPa 0,0 l/m 2,9 m/s (2 Bft) W45 265 5 min 20,7 klux 11,1 C 18,4 C
07.06.2010 19:47 21,2 C 22,3 C 17,3 C 53 % 1011 hPa 0,0 l/m 1,8 m/s (2 Bft) W-NW22.5 285 5 min 21,8 klux 11,2 C 21,1 C
07.06.2010 19:52 21,8 C 22,5 C 17,1 C 53 % 1011 hPa 0,0 l/m 0,3 m/s (0 Bft) W-SW 245 5 min 20,1 klux 11,8 C 21,8 C
07.06.2010 19:57 22,3 C 22,7 C 16,6 C 53 % 1011 hPa 0,0 l/m 0,0 m/s (0 Bft) W-SW 245 0 min 17,0 klux 12,2 C 22,3 C
07.06.2010 20:02 21,3 C 22,5 C 16,5 C 54 % 1011 hPa 0,0 l/m 0,0 m/s (0 Bft) W-SW 240 0 min 10,7 klux 11,6 C 21,3 C
07.06.2010 20:07 20,8 C 22,0 C 16,9 C 56 % 1011 hPa 0,0 l/m 0,3 m/s (0 Bft) W-SW 240 0 min 9,9 klux 11,7 C 20,8 C
07.06.2010 20:12 19,8 C 21,7 C 16,9 C 57 % 1011 hPa 0,0 l/m 1,9 m/s (2 Bft) W-SW22.5 255 0 min 8,98 klux 11,0 C 19,6 C
07.06.2010 20:17 19,1 C 21,3 C 16,2 C 59 % 1011 hPa 0,0 l/m 1,3 m/s (1 Bft) W 270 0 min 6,84 klux 10,9 C 19,1 C
07.06.2010 20:22 19,0 C 20,9 C 15,8 C 59 % 1011 hPa 0,0 l/m 0,8 m/s (1 Bft) W 270 0 min 5,26 klux 10,8 C 19,0 C
07.06.2010 20:27 18,4 C 20,6 C 15,8 C 61 % 1011 hPa 0,0 l/m 0,1 m/s (0 Bft) W 270 0 min 4,36 klux 10,7 C 18,4 C
07.06.2010 20:32 18,2 C 20,2 C 16,2 C 62 % 1011 hPa 0,0 l/m 0,0 m/s (0 Bft) W 270 0 min 3,45 klux 10,8 C 18,2 C
07.06.2010 20:37 17,6 C 19,8 C 15,6 C 65 % 1012 hPa 0,0 l/m 0,0 m/s (0 Bft) W 270 0 min 3,18 klux 10,9 C 17,6 C
07.06.2010 20:42 17,1 C 19,5 C 15,9 C 66 % 1011 hPa 0,0 l/m 0,0 m/s (0 Bft) W 270 0 min 2,98 klux 10,7 C 17,1 C
07.06.2010 20:47 16,8 C 19,3 C 15,9 C 67 % 1011 hPa 0,0 l/m 0,0 m/s (0 Bft) W 270 0 min 2,28 klux 10,6 C 16,8 C
07.06.2010 20:52 16,6 C 19,0 C 15,6 C 69 % 1011 hPa 0,0 l/m 0,0 m/s (0 Bft) W 270 0 min 1,98 klux 10,9 C 16,6 C
07.06.2010 20:57 16,5 C 18,6 C 15,5 C 70 % 1011 hPa 0,0 l/m 0,0 m/s (0 Bft) W 270 0 min 1,75 klux 11,0 C 16,5 C
07.06.2010 21:02 16,2 C 18,6 C 15,5 C 72 % 1011 hPa 0,0 l/m 0,0 m/s (0 Bft) W 270 0 min 1,28 klux 11,1 C 16,2 C
07.06.2010 21:07 16,0 C 18,2 C 15,1 C 72 % 1011 hPa 0,0 l/m 0,0 m/s (0 Bft) W 270 0 min 1,12 klux 11,0 C 16,0 C
07.06.2010 21:12 15,9 C 18,0 C 15,3 C 72 % 1011 hPa 0,0 l/m 0,0 m/s (0 Bft) W 270 0 min 765 lux 10,9 C 15,9 C
07.06.2010 21:17 15,7 C 17,8 C 15,2 C 74 % 1011 hPa 0,0 l/m 0,0 m/s (0 Bft) W 270 0 min 448 lux 11,1 C 15,7 C
07.06.2010 21:22 15,7 C 17,6 C 15,1 C 74 % 1011 hPa 0,0 l/m 0,0 m/s (0 Bft) W 270 0 min 445 lux 11,1 C 15,7 C
07.06.2010 21:27 15,8 C 17,4 C 15,2 C 75 % 1012 hPa 0,0 l/m 0,0 m/s (0 Bft) W 270 0 min 406 lux 11,4 C 15,8 C
07.06.2010 21:32 15,6 C 17,2 C 14,7 C 75 % 1011 hPa 0,0 l/m 0,0 m/s (0 Bft) W 270 0 min 315 lux 11,2 C 15,6 C
07.06.2010 21:37 15,4 C 17,1 C 14,9 C 76 % 1011 hPa 0,0 l/m 0,0 m/s (0 Bft) W 270 0 min 265 lux 11,2 C 15,4 C
07.06.2010 21:43 15,3 C 17,0 C 14,6 C 76 % 1011 hPa 0,0 l/m 0,0 m/s (0 Bft) W 270 0 min 171 lux 11,1 C 15,3 C
07.06.2010 21:48 15,2 C 16,9 C 14,3 C 77 % 1011 hPa 0,0 l/m 0,0 m/s (0 Bft) W 270 0 min 108 lux 11,2 C 15,2 C
07.06.2010 21:53 15,0 C 16,8 C 14,1 C 78 % 1011 hPa 0,0 l/m 0,0 m/s (0 Bft) W 270 0 min 67 lux 11,2 C 15,0 C
07.06.2010 21:58 15,0 C 16,7 C 14,4 C 79 % 1011 hPa 0,0 l/m 0,0 m/s (0 Bft) W 270 0 min 33 lux 11,4 C 15,0 C
07.06.2010 22:03 15,0 C 16,6 C 14,8 C 80 % 1011 hPa 0,0 l/m 0,0 m/s (0 Bft) W 270 0 min 16 lux 11,6 C 15,0 C
07.06.2010 22:08 15,0 C 16,4 C 14,1 C 81 % 1011 hPa 0,0 l/m 0,0 m/s (0 Bft) W 270 0 min 9 lux 11,8 C 15,0 C
07.06.2010 22:13 15,0 C 16,3 C 14,0 C 82 % 1011 hPa 0,0 l/m 0,0 m/s (0 Bft) W 270 0 min 4 lux 12,0 C 15,0 C
07.06.2010 22:18 15,0 C 16,2 C 14,4 C 82 % 1011 hPa 0,0 l/m 1,3 m/s (1 Bft) W-SW22.5 245 0 min 0 lux 12,0 C 15,0 C
07.06.2010 22:23 14,8 C 16,1 C 13,9 C 82 % 1011 hPa 0,0 l/m 0,0 m/s (0 Bft) SW 225 0 min 0 lux 11,8 C 14,8 C
07.06.2010 22:28 14,5 C 16,0 C 13,9 C 82 % 1011 hPa 0,0 l/m 0,0 m/s (0 Bft) SW 230 0 min 0 lux 11,5 C 14,5 C
07.06.2010 22:33 14,4 C 15,8 C 14,0 C 82 % 1011 hPa 0,0 l/m 0,8 m/s (1 Bft) S-SW45 210 0 min 0 lux 11,4 C 14,4 C
07.06.2010 22:38 14,2 C 15,6 C 13,8 C 83 % 1011 hPa 0,0 l/m 0,1 m/s (0 Bft) S 170 0 min 0 lux 11,4 C 14,2 C
07.06.2010 22:43 14,0 C 15,5 C 13,4 C 85 % 1012 hPa 0,0 l/m 0,0 m/s (0 Bft) S 170 0 min 0 lux 11,5 C 14,0 C
07.06.2010 22:48 13,7 C 15,3 C 13,9 C 83 % 1012 hPa 0,0 l/m 0,0 m/s (0 Bft) S 170 0 min 0 lux 10,9 C 13,7 C
07.06.2010 22:53 13,7 C 15,1 C 13,0 C 83 % 1012 hPa 0,0 l/m 0,0 m/s (0 Bft) S 170 0 min 0 lux 10,9 C 13,7 C
07.06.2010 22:58 13,4 C 14,9 C 13,3 C 83 % 1012 hPa 0,0 l/m 0,0 m/s (0 Bft) S 170 0 min 0 lux 10,6 C 13,4 C
07.06.2010 23:03 13,2 C 14,8 C 13,4 C 84 % 1011 hPa 0,0 l/m 0,0 m/s (0 Bft) S 170 0 min 0 lux 10,6 C 13,2 C
07.06.2010 23:08 13,1 C 14,7 C 13,5 C 84 % 1011 hPa 0,0 l/m 0,0 m/s (0 Bft) S 170 0 min 0 lux 10,5 C 13,1 C
07.06.2010 23:13 13,0 C 14,5 C 13,1 C 85 % 1011 hPa 0,0 l/m 0,0 m/s (0 Bft) S 175 0 min 0 lux 10,5 C 13,0 C
07.06.2010 23:18 12,8 C 14,4 C 12,5 C 86 % 1011 hPa 0,0 l/m 0,0 m/s (0 Bft) S 170 0 min 0 lux 10,5 C 12,8 C
07.06.2010 23:23 12,8 C 14,3 C 12,3 C 85 % 1011 hPa 0,0 l/m 0,0 m/s (0 Bft) S 170 0 min 0 lux 10,3 C 12,8 C
07.06.2010 23:28 12,6 C 14,1 C 12,7 C 85 % 1011 hPa 0,0 l/m 0,0 m/s (0 Bft) S 170 0 min 0 lux 10,1 C 12,6 C
07.06.2010 23:33 12,4 C 14,0 C 12,1 C 85 % 1011 hPa 0,0 l/m 0,0 m/s (0 Bft) S 170 0 min 0 lux 9,9 C 12,4 C
07.06.2010 23:38 12,4 C 13,8 C 12,0 C 86 % 1011 hPa 0,0 l/m 0,0 m/s (0 Bft) S 170 0 min 0 lux 10,1 C 12,4 C
07.06.2010 23:43 12,2 C 13,7 C 11,8 C 86 % 1011 hPa 0,0 l/m 0,0 m/s (0 Bft) S 170 0 min 0 lux 9,9 C 12,2 C
07.06.2010 23:48 11,9 C 13,5 C 11,9 C 86 % 1011 hPa 0,0 l/m 0,0 m/s (0 Bft) S 175 0 min 0 lux 9,6 C 11,9 C
07.06.2010 23:52 11,8 C 13,4 C 11,9 C 86 % 1011 hPa 0,0 l/m 0,0 m/s (0 Bft) S 170 0 min 0 lux 9,5 C 11,8 C
07.06.2010 23:57 11,7 C 13,3 C 12,2 C 87 % 1011 hPa 0,0 l/m 0,0 m/s (0 Bft) S 175 0 min 0 lux 9,6 C 11,7 C
_ Min-Zeit 06:07 06:47 06:17 19:17 00:02 - 02:32 - - - - 23:52 08:38
Minimum _ 11,6 C 12,1 C 9,7 C 50 % 1011 hPa - 0,0 m/s (0 Bft) - - - - 9,5 C 6,2 C
_ Max-Zeit 19:17 15:33 14:07 00:58 08:23 00:02 15:48 - - 07:03 12:17 01:07 19:57
Maximum _ 22,7 C 26,3 C 20,3 C 96 % 1013 hPa 1,8 l/m 7,6 m/s
W (4 Bft)
- - 6 min 121 klux 15,3 C 22,3 C
Durchschnitt _ 16,5 C 17,8 C 14,3 C 77 % 1012 hPa #7,9 l/m 2,5 m/s (2 Bft) W - #4:01 h 20,2 klux 12,2 C 14,8 C